Raduzhny, Russia
Current Conditions -  °F | °C
As of 1:30 PM on Wednesday 26 Nov 2014 (Local Time) from USNN Reporting Station
Clear Clear  
Wind Chill:   Ceiling: Unl
Heat Index: 10°   Visibility: 6mi
Dew Point:   Wind: 7mph
Humidity: 79%   Direction: 260°W
Pressure: 29.38"   Gusts: 13mph
Location:  62.16°N, 77.31°E
Report Text: USNN 260830Z 26003G06MPS CAVOK M12/M15 Q0995 NOSIG RMK QFE74221420532
Loading
Personal Weather Stations






























Interactive Weather Map New forecast layout! Learn more

10-Day Weather Forecast

Advertisements
Track Severe Weather on mobile